createdAt,value
2024-01-11T00:02:02.270Z,103472.78
2024-01-11T00:04:28.742Z,103479.72
2024-01-11T00:06:55.412Z,103471.84
2024-01-11T00:09:21.937Z,103483.16
2024-01-11T00:11:48.387Z,103482.13
2024-01-11T00:14:14.873Z,103471.56
2024-01-11T00:16:42.353Z,103473.22
2024-01-11T00:19:08.862Z,103473.88
2024-01-11T00:21:36.708Z,103479.06
2024-01-11T00:24:04.320Z,103473.88
2024-01-11T00:26:30.898Z,103481.59
2024-01-11T00:28:57.352Z,103477.06
2024-01-11T00:31:23.804Z,103473.47
2024-01-11T00:33:50.286Z,103477.84
2024-01-11T00:36:21.219Z,103474.19
2024-01-11T00:38:47.665Z,103468.88
2024-01-11T00:41:14.135Z,103468.94
2024-01-11T00:43:40.658Z,103471.44
2024-01-11T00:46:07.056Z,103465.16
2024-01-11T00:48:33.563Z,103465.16
2024-01-11T00:51:00.066Z,103461.69
2024-01-11T00:53:31.592Z,103459.06
2024-01-11T00:55:58.681Z,103469.41
2024-01-11T00:58:25.137Z,103478.06
2024-01-11T01:00:53.682Z,103467.28
2024-01-11T01:03:22.182Z,103472.59
2024-01-11T01:05:48.809Z,103474.34
2024-01-11T01:08:15.564Z,103474.28
2024-01-11T01:10:42.234Z,103471.34
2024-01-11T01:13:08.731Z,103473.22
2024-01-11T01:15:35.221Z,103476.63
2024-01-11T01:18:01.885Z,103480.09
2024-01-11T01:20:28.771Z,103485.34
2024-01-11T01:22:55.436Z,103483.44
2024-01-11T01:25:22.101Z,103481.63
2024-01-11T01:27:49.252Z,103483.44
2024-01-11T01:30:15.777Z,103483.38
2024-01-11T01:32:42.552Z,103491.97
2024-01-11T01:35:09.292Z,103491.91
2024-01-11T01:37:35.854Z,103486.66
2024-01-11T01:40:02.341Z,103496.19
2024-01-11T01:42:28.816Z,103494.47
2024-01-11T01:44:55.288Z,103496.03
2024-01-11T01:47:23.286Z,103495.94
2024-01-11T01:49:50.750Z,103503.69
2024-01-11T01:52:18.058Z,103503.69
2024-01-11T01:54:44.674Z,103507.22
2024-01-11T01:57:12.896Z,103501.84
2024-01-11T01:59:40.766Z,103510.47
2024-01-11T02:02:07.734Z,103509.41
2024-01-11T02:04:34.625Z,103510.28
2024-01-11T02:07:01.797Z,103510.22
2024-01-11T02:09:29.291Z,103512.53
2024-01-11T02:11:55.933Z,103521.44
2024-01-11T02:14:22.431Z,103522.22
2024-01-11T02:16:48.884Z,103526.44
2024-01-11T02:19:18.606Z,103524.63
2024-01-11T02:21:47.183Z,103525.31
2024-01-11T02:24:14.280Z,103524.50
2024-01-11T02:27:00.368Z,103512.25
2024-01-11T02:29:27.951Z,103511.44
2024-01-11T02:31:55.742Z,103508.88
2024-01-11T02:34:23.619Z,103506.03
2024-01-11T02:36:50.806Z,103509.44
2024-01-11T02:39:18.727Z,103508.47
2024-01-11T02:41:45.753Z,103507.56
2024-01-11T02:44:12.339Z,103508.34
2024-01-11T02:46:38.852Z,103503.16
2024-01-11T02:49:05.432Z,103504.81
2024-01-11T02:51:31.964Z,103502.19
2024-01-11T02:53:59.030Z,103504.75
2024-01-11T02:56:25.804Z,103492.34
2024-01-11T02:58:52.218Z,103489.66
2024-01-11T03:01:18.694Z,103507.19
2024-01-11T03:03:45.242Z,103499.31
2024-01-11T03:06:11.752Z,103491.44
2024-01-11T03:08:38.373Z,103494.00
2024-01-11T03:11:05.274Z,103492.00
2024-01-11T03:13:32.420Z,103499.81
2024-01-11T03:15:58.852Z,103505.84
2024-01-11T03:18:25.392Z,103518.97
2024-01-11T03:20:52.368Z,103526.09
2024-01-11T03:23:18.864Z,103519.09
2024-01-11T03:25:45.344Z,103513.84
2024-01-11T03:28:11.866Z,103509.38
2024-01-11T03:30:38.369Z,103509.50
2024-01-11T03:33:05.489Z,103520.00
2024-01-11T03:35:32.160Z,103521.78
2024-01-11T03:37:58.706Z,103528.91
2024-01-11T03:40:25.133Z,103524.75
2024-01-11T03:42:53.584Z,103523.00
2024-01-11T03:45:22.630Z,103522.94
2024-01-11T03:47:49.095Z,103511.47
2024-01-11T03:50:15.674Z,103520.19
2024-01-11T03:52:43.564Z,103524.41
2024-01-11T03:55:10.060Z,103519.09
2024-01-11T03:57:36.689Z,103521.72
2024-01-11T04:00:03.562Z,103528.00
2024-01-11T04:02:30.518Z,103528.00
2024-01-11T04:04:57.112Z,103528.84
2024-01-11T04:07:23.610Z,103536.78
2024-01-11T04:09:50.036Z,103533.25
2024-01-11T04:12:16.556Z,103539.34
2024-01-11T04:14:43.163Z,103540.19
2024-01-11T04:17:09.786Z,103545.56
2024-01-11T04:19:36.335Z,103550.94
2024-01-11T04:22:02.773Z,103545.75
2024-01-11T04:24:29.243Z,103546.78
2024-01-11T04:26:55.739Z,103544.03
2024-01-11T04:29:22.348Z,103556.25
2024-01-11T04:31:48.888Z,103561.66
2024-01-11T04:34:15.712Z,103560.75
2024-01-11T04:36:42.124Z,103556.59
2024-01-11T04:39:08.753Z,103564.28
2024-01-11T04:41:38.114Z,103569.47
2024-01-11T04:44:04.969Z,103564.34
2024-01-11T04:46:31.357Z,103564.47
2024-01-11T04:48:57.869Z,103564.41
2024-01-11T04:51:24.460Z,103562.63
2024-01-11T04:53:50.878Z,103567.72
2024-01-11T04:56:18.135Z,103564.16
2024-01-11T04:58:46.310Z,103570.44
2024-01-11T05:01:14.571Z,103572.22
2024-01-11T05:03:41.387Z,103580.72
2024-01-11T05:06:07.784Z,103562.47
2024-01-11T05:08:34.735Z,103558.19
2024-01-11T05:11:01.347Z,103558.13
2024-01-11T05:13:27.802Z,103555.56
2024-01-11T05:15:54.251Z,103553.84
2024-01-11T05:18:20.797Z,103565.31
2024-01-11T05:20:47.365Z,103565.16
2024-01-11T05:23:13.875Z,103562.53
2024-01-11T05:25:40.495Z,103549.28
2024-01-11T05:28:06.982Z,103544.09
2024-01-11T05:30:34.307Z,103551.16
2024-01-11T05:33:01.081Z,103548.50
2024-01-11T05:35:28.860Z,103537.13
2024-01-11T05:37:58.466Z,103533.66
2024-01-11T05:40:24.973Z,103520.59
2024-01-11T05:42:51.429Z,103534.56
2024-01-11T05:45:19.702Z,103553.69
2024-01-11T05:47:49.004Z,103550.03
2024-01-11T05:50:16.019Z,103542.94
2024-01-11T05:52:43.421Z,103530.84
2024-01-11T05:55:09.881Z,103536.84
2024-01-11T05:57:36.520Z,103544.59
2024-01-11T06:00:03.620Z,103548.13
2024-01-11T06:02:30.143Z,103554.22
2024-01-11T06:04:56.617Z,103561.06
2024-01-11T06:07:23.145Z,103564.56
2024-01-11T06:09:49.587Z,103565.47
2024-01-11T06:12:16.408Z,103572.28
2024-01-11T06:14:42.805Z,103571.38
2024-01-11T06:17:12.111Z,103571.25
2024-01-11T06:19:39.594Z,103597.59
2024-01-11T06:22:06.613Z,103608.09
2024-01-11T06:24:32.950Z,103622.88
2024-01-11T06:26:59.401Z,103632.53
2024-01-11T06:29:25.848Z,103638.63
2024-01-11T06:31:52.711Z,103636.97
2024-01-11T06:34:19.096Z,103628.19
2024-01-11T06:36:45.547Z,103632.63
2024-01-11T06:39:13.628Z,103640.56
2024-01-11T06:41:40.211Z,103645.91
2024-01-11T06:44:06.747Z,103648.31
2024-01-11T06:46:33.264Z,103645.69
2024-01-11T06:48:59.819Z,103644.84
2024-01-11T06:51:26.344Z,103644.13
2024-01-11T06:53:52.812Z,103640.34
2024-01-11T06:56:21.074Z,103650.03
2024-01-11T06:58:48.026Z,103654.44
2024-01-11T07:01:14.651Z,103668.72
2024-01-11T07:03:41.210Z,103664.28
2024-01-11T07:06:08.432Z,103666.03
2024-01-11T07:08:35.996Z,103659.13
2024-01-11T07:11:08.559Z,103652.13
2024-01-11T07:13:35.025Z,103647.66
2024-01-11T07:16:01.580Z,103650.34
2024-01-11T07:18:28.217Z,103640.03
2024-01-11T07:20:57.956Z,103635.75
2024-01-11T07:23:24.417Z,103632.22
2024-01-11T07:25:51.069Z,103622.63
2024-01-11T07:28:18.450Z,103633.19
2024-01-11T07:30:45.231Z,103619.03
2024-01-11T07:33:11.854Z,103614.69
2024-01-11T07:35:38.518Z,103617.38
2024-01-11T07:38:05.311Z,103610.47
2024-01-11T07:40:34.560Z,103619.31
2024-01-11T07:43:02.492Z,103628.84
2024-01-11T07:45:29.222Z,103635.75
2024-01-11T07:47:55.700Z,103625.31
2024-01-11T07:50:22.223Z,103622.75
2024-01-11T07:52:48.735Z,103624.50
2024-01-11T07:55:16.413Z,103622.50
2024-01-11T07:57:43.026Z,103626.06
2024-01-11T08:00:09.976Z,103623.66
2024-01-11T08:02:36.979Z,103634.38
2024-01-11T08:05:04.045Z,103637.19
2024-01-11T08:07:31.336Z,103633.81
2024-01-11T08:09:57.777Z,103622.41
2024-01-11T08:12:24.286Z,103625.03
2024-01-11T08:14:50.803Z,103626.00
2024-01-11T08:17:17.253Z,103629.50
2024-01-11T08:19:43.918Z,103621.75
2024-01-11T08:22:12.467Z,103617.41
2024-01-11T08:24:39.493Z,103626.28
2024-01-11T08:27:06.826Z,103623.72
2024-01-11T08:29:34.240Z,103623.88
2024-01-11T08:32:02.681Z,103630.84
2024-01-11T08:34:32.958Z,103632.78
2024-01-11T08:37:00.785Z,103642.59
2024-01-11T08:39:27.405Z,103641.88
2024-01-11T08:41:53.884Z,103654.47
2024-01-11T08:44:20.299Z,103646.78
2024-01-11T08:46:46.753Z,103660.16
2024-01-11T08:49:13.248Z,103664.00
2024-01-11T08:51:39.790Z,103672.22
2024-01-11T08:54:09.875Z,103680.00
2024-01-11T08:56:41.212Z,103678.06
2024-01-11T08:59:09.603Z,103680.06
2024-01-11T09:01:37.024Z,103691.00
2024-01-11T09:04:03.484Z,103695.78
2024-01-11T09:06:30.597Z,103698.06
2024-01-11T09:08:57.224Z,103702.06
2024-01-11T09:11:23.681Z,103705.06
2024-01-11T09:13:50.214Z,103705.72
2024-01-11T09:16:17.924Z,103703.16
2024-01-11T09:18:45.810Z,103696.22
2024-01-11T09:21:13.372Z,103691.28
2024-01-11T09:23:40.058Z,103688.66
2024-01-11T09:26:06.556Z,103692.94
2024-01-11T09:28:32.982Z,103696.44
2024-01-11T09:31:01.162Z,103696.16
2024-01-11T09:33:27.930Z,103702.41
2024-01-11T09:35:55.287Z,103709.09
2024-01-11T09:38:21.730Z,103706.41
2024-01-11T09:41:00.932Z,103712.56
2024-01-11T09:43:28.011Z,103715.31
2024-01-11T09:45:55.638Z,103716.03
2024-01-11T09:48:22.580Z,103715.88
2024-01-11T09:50:50.546Z,103717.72
2024-01-11T09:53:18.932Z,103728.38
2024-01-11T09:55:45.445Z,103727.78
2024-01-11T09:58:12.745Z,103731.41
2024-01-11T10:00:57.742Z,103712.09
2024-01-11T10:03:24.912Z,103712.28
2024-01-11T10:05:54.831Z,103721.19
2024-01-11T10:08:22.847Z,103725.56
2024-01-11T10:10:49.428Z,103720.53
2024-01-11T10:13:17.295Z,103729.28
2024-01-11T10:15:44.934Z,103731.25
2024-01-11T10:18:14.437Z,103735.75
2024-01-11T10:20:41.146Z,103730.56
2024-01-11T10:23:07.907Z,103723.59
2024-01-11T10:25:34.429Z,103726.28
2024-01-11T10:28:00.886Z,103718.53
2024-01-11T10:30:27.687Z,103719.53
2024-01-11T10:32:58.340Z,103711.78
2024-01-11T10:35:26.075Z,103720.69
2024-01-11T10:37:55.344Z,103729.41
2024-01-11T10:40:25.283Z,103723.38
2024-01-11T10:42:52.887Z,103727.13
2024-01-11T10:45:21.765Z,103723.69
2024-01-11T10:47:54.493Z,103714.97
2024-01-11T10:50:23.816Z,103724.78
2024-01-11T10:53:03.799Z,103728.53
2024-01-11T10:55:33.761Z,103729.66
2024-01-11T10:58:02.605Z,103729.84
2024-01-11T11:00:31.057Z,103725.47
2024-01-11T11:03:01.077Z,103730.06
2024-01-11T11:05:30.045Z,103737.19
2024-01-11T11:07:56.901Z,103734.63
2024-01-11T11:10:25.053Z,103737.38
2024-01-11T11:12:54.924Z,103733.09
2024-01-11T11:15:22.784Z,103740.22
2024-01-11T11:17:51.387Z,103748.31
2024-01-11T11:20:18.128Z,103743.03
2024-01-11T11:23:03.638Z,103746.63
2024-01-11T11:25:31.363Z,103740.53
2024-01-11T11:28:01.081Z,103734.44
2024-01-11T11:30:28.589Z,103729.22
2024-01-11T11:32:55.793Z,103736.34
2024-01-11T11:35:24.711Z,103733.84
2024-01-11T11:37:56.448Z,103733.94
2024-01-11T11:40:23.083Z,103721.66
2024-01-11T11:42:49.686Z,103712.00
2024-01-11T11:45:26.549Z,103713.78
2024-01-11T11:47:53.133Z,103716.50
2024-01-11T11:50:23.701Z,103712.25
2024-01-11T11:52:57.060Z,103707.72
2024-01-11T11:55:27.695Z,103709.69
2024-01-11T11:57:54.241Z,103699.31
2024-01-11T12:00:21.227Z,103696.84
2024-01-11T12:02:48.860Z,103692.53
2024-01-11T12:05:17.558Z,103688.31
2024-01-11T12:07:44.185Z,103687.53
2024-01-11T12:10:11.350Z,103672.66
2024-01-11T12:12:38.152Z,103671.00
2024-01-11T12:15:06.213Z,103649.94
2024-01-11T12:17:32.835Z,103650.06
2024-01-11T12:19:59.386Z,103646.75
2024-01-11T12:22:25.892Z,103643.31
2024-01-11T12:24:54.377Z,103640.91
2024-01-11T12:27:21.497Z,103643.59
2024-01-11T12:29:53.061Z,103642.69
2024-01-11T12:32:25.304Z,103637.47
2024-01-11T12:34:52.825Z,103639.25
2024-01-11T12:37:19.335Z,103642.84
2024-01-11T12:39:46.457Z,103648.09
2024-01-11T12:42:14.033Z,103633.97
2024-01-11T12:44:41.590Z,103626.97
2024-01-11T12:47:08.898Z,103628.81
2024-01-11T12:49:35.834Z,103628.91
2024-01-11T12:52:02.367Z,103632.50
2024-01-11T12:54:28.817Z,103621.06
2024-01-11T12:56:55.364Z,103617.50
2024-01-11T12:59:25.924Z,103614.97
2024-01-11T13:01:52.513Z,103614.94
2024-01-11T13:04:19.102Z,103619.38
2024-01-11T13:06:45.650Z,103614.06
2024-01-11T13:09:12.612Z,103607.00
2024-01-11T13:11:39.151Z,103612.25
2024-01-11T13:14:08.319Z,103607.00
2024-01-11T13:16:34.910Z,103614.91
2024-01-11T13:19:02.029Z,103612.38
2024-01-11T13:21:30.033Z,103607.94
2024-01-11T13:23:58.007Z,103608.78
2024-01-11T13:26:24.586Z,103605.38
2024-01-11T13:28:53.285Z,103606.34
2024-01-11T13:31:19.729Z,103600.97
2024-01-11T13:33:46.202Z,103605.38
2024-01-11T13:36:12.720Z,103599.28
2024-01-11T13:38:39.406Z,103587.81
2024-01-11T13:41:09.399Z,103602.16
2024-01-11T13:43:36.181Z,103593.41
2024-01-11T13:46:05.595Z,103603.16
2024-01-11T13:48:35.473Z,103601.34
2024-01-11T13:51:04.783Z,103597.88
2024-01-11T13:53:31.988Z,103579.34
2024-01-11T13:55:58.440Z,103576.69
2024-01-11T13:58:27.414Z,103577.47
2024-01-11T14:00:55.491Z,103574.81
2024-01-11T14:03:23.256Z,103572.16
2024-01-11T14:05:50.017Z,103562.41
2024-01-11T14:08:16.647Z,103568.72
2024-01-11T14:10:43.096Z,103563.41
2024-01-11T14:13:24.080Z,103565.13
2024-01-11T14:15:52.052Z,103577.47
2024-01-11T14:18:20.116Z,103567.81
2024-01-11T14:20:47.012Z,103571.41
2024-01-11T14:23:13.683Z,103571.44
2024-01-11T14:25:41.699Z,103569.69
2024-01-11T14:28:09.072Z,103567.06
2024-01-11T14:30:36.108Z,103570.69
2024-01-11T14:33:02.666Z,103568.97
2024-01-11T14:35:29.230Z,103570.81
2024-01-11T14:37:55.742Z,103567.31
2024-01-11T14:40:24.399Z,103562.94
2024-01-11T14:42:51.783Z,103559.41
2024-01-11T14:45:18.520Z,103558.53
2024-01-11T14:47:45.080Z,103550.63
2024-01-11T14:50:12.405Z,103553.34
2024-01-11T14:52:42.284Z,103550.72
2024-01-11T14:55:10.631Z,103556.03
2024-01-11T14:57:38.254Z,103554.25
2024-01-11T15:00:05.578Z,103564.88
2024-01-11T15:02:35.561Z,103564.91
2024-01-11T15:05:01.947Z,103570.19
2024-01-11T15:07:28.640Z,103566.66
2024-01-11T15:09:55.157Z,103561.41
2024-01-11T15:12:23.094Z,103559.59
2024-01-11T15:14:51.864Z,103558.69
2024-01-11T15:17:21.350Z,103559.56
2024-01-11T15:19:48.704Z,103558.66
2024-01-11T15:22:15.249Z,103566.63
2024-01-11T15:24:42.909Z,103564.84
2024-01-11T15:27:10.352Z,103563.94
2024-01-11T15:29:36.910Z,103562.97
2024-01-11T15:32:03.553Z,103556.75
2024-01-11T15:34:30.203Z,103553.22
2024-01-11T15:36:57.007Z,103555.88
2024-01-11T15:39:28.265Z,103552.38
2024-01-11T15:41:57.957Z,103553.22
2024-01-11T15:44:27.226Z,103550.59
2024-01-11T15:46:53.893Z,103550.56
2024-01-11T15:49:20.287Z,103548.84
2024-01-11T15:51:46.736Z,103548.94
2024-01-11T15:54:14.222Z,103544.50
2024-01-11T15:56:40.807Z,103548.84
2024-01-11T15:59:08.512Z,103546.22
2024-01-11T16:01:50.702Z,103540.91
2024-01-11T16:04:23.964Z,103549.66
2024-01-11T16:06:50.703Z,103546.06
2024-01-11T16:09:22.872Z,103550.56
2024-01-11T16:11:52.068Z,103544.44
2024-01-11T16:14:18.796Z,103542.63
2024-01-11T16:16:45.245Z,103540.84
2024-01-11T16:19:12.138Z,103545.19
2024-01-11T16:21:38.897Z,103537.19
2024-01-11T16:24:05.448Z,103534.56
2024-01-11T16:26:32.174Z,103536.25
2024-01-11T16:28:58.717Z,103544.19
2024-01-11T16:31:25.162Z,103542.50
2024-01-11T16:33:51.674Z,103540.72
2024-01-11T16:36:18.246Z,103544.31
2024-01-11T16:38:44.947Z,103547.88
2024-01-11T16:41:12.236Z,103533.78
2024-01-11T16:43:39.065Z,103545.34
2024-01-11T16:46:08.556Z,103550.69
2024-01-11T16:48:35.132Z,103540.03
2024-01-11T16:51:04.498Z,103540.91
2024-01-11T16:53:31.378Z,103540.03
2024-01-11T16:55:57.921Z,103540.94
2024-01-11T16:58:24.492Z,103534.84
2024-01-11T17:00:50.913Z,103538.34
2024-01-11T17:03:17.516Z,103537.50
2024-01-11T17:05:44.216Z,103533.06
2024-01-11T17:08:10.821Z,103532.97
2024-01-11T17:10:38.819Z,103531.31
2024-01-11T17:13:05.435Z,103533.13
2024-01-11T17:15:31.805Z,103526.94
2024-01-11T17:17:58.414Z,103534.91
2024-01-11T17:20:25.080Z,103525.19
2024-01-11T17:22:52.985Z,103522.50
2024-01-11T17:25:19.615Z,103513.75
2024-01-11T17:27:45.970Z,103516.44
2024-01-11T17:30:12.588Z,103512.97
2024-01-11T17:32:39.522Z,103513.00
2024-01-11T17:35:07.186Z,103512.03
2024-01-11T17:37:33.807Z,103519.13
2024-01-11T17:40:00.388Z,103525.38
2024-01-11T17:42:26.823Z,103526.28
2024-01-11T17:44:53.581Z,103523.66
2024-01-11T17:47:20.344Z,103525.47
2024-01-11T17:49:47.058Z,103519.34
2024-01-11T17:52:16.251Z,103517.66
2024-01-11T17:54:42.924Z,103521.16
2024-01-11T17:57:09.381Z,103537.97
2024-01-11T17:59:35.903Z,103538.84
2024-01-11T18:02:03.471Z,103546.84
2024-01-11T18:04:30.139Z,103550.41
2024-01-11T18:06:56.695Z,103558.38
2024-01-11T18:09:23.284Z,103548.66
2024-01-11T18:11:50.343Z,103533.69
2024-01-11T18:14:17.319Z,103532.84
2024-01-11T18:16:43.727Z,103542.59
2024-01-11T18:19:14.496Z,103539.97
2024-01-11T18:21:41.683Z,103535.56
2024-01-11T18:24:08.214Z,103539.03
2024-01-11T18:26:35.233Z,103544.44
2024-01-11T18:29:02.265Z,103540.94
2024-01-11T18:31:28.682Z,103528.56
2024-01-11T18:33:56.220Z,103526.81
2024-01-11T18:36:24.042Z,103526.84
2024-01-11T18:38:53.255Z,103517.94
2024-01-11T18:41:24.773Z,103522.38
2024-01-11T18:43:51.343Z,103519.72
2024-01-11T18:46:17.922Z,103519.75
2024-01-11T18:48:45.065Z,103514.53
2024-01-11T18:51:11.885Z,103511.97
2024-01-11T18:53:38.507Z,103517.22
2024-01-11T18:56:13.271Z,103512.81
2024-01-11T18:58:39.718Z,103519.84
2024-01-11T19:01:09.540Z,103517.19
2024-01-11T19:03:39.768Z,103533.19
2024-01-11T19:06:07.914Z,103523.53
2024-01-11T19:08:35.199Z,103520.91
2024-01-11T19:11:01.731Z,103510.25
2024-01-11T19:13:28.061Z,103515.63
2024-01-11T19:15:55.102Z,103508.53
2024-01-11T19:18:21.675Z,103513.84
2024-01-11T19:20:53.879Z,103516.50
2024-01-11T19:23:27.842Z,103514.72
2024-01-11T19:25:56.167Z,103514.75
2024-01-11T19:28:22.803Z,103524.56
2024-01-11T19:30:49.316Z,103541.38
2024-01-11T19:33:17.878Z,103534.31
2024-01-11T19:35:45.237Z,103543.13
2024-01-11T19:38:13.452Z,103545.81
2024-01-11T19:40:43.138Z,103537.84
2024-01-11T19:43:10.321Z,103538.75
2024-01-11T19:45:37.135Z,103544.03
2024-01-11T19:48:04.193Z,103536.97
2024-01-11T19:50:32.175Z,103534.34
2024-01-11T19:52:58.648Z,103543.25
2024-01-11T19:55:25.174Z,103546.78
2024-01-11T19:57:51.671Z,103548.56
2024-01-11T20:00:17.975Z,103558.25
2024-01-11T20:02:44.522Z,103548.56
2024-01-11T20:05:10.997Z,103546.84
2024-01-11T20:07:37.668Z,103548.59
2024-01-11T20:10:04.462Z,103545.94
2024-01-11T20:12:30.965Z,103551.22
2024-01-11T20:14:57.394Z,103554.81
2024-01-11T20:17:23.859Z,103546.91
2024-01-11T20:19:52.396Z,103553.06
2024-01-11T20:22:20.289Z,103553.88
2024-01-11T20:24:47.038Z,103556.50
2024-01-11T20:27:13.578Z,103567.16
2024-01-11T20:29:41.190Z,103566.28
2024-01-11T20:32:07.881Z,103563.66
2024-01-11T20:34:35.020Z,103563.63
2024-01-11T20:37:01.952Z,103563.56
2024-01-11T20:39:28.349Z,103560.94
2024-01-11T20:41:57.037Z,103566.22
2024-01-11T20:44:23.913Z,103573.22
2024-01-11T20:46:50.389Z,103569.69
2024-01-11T20:49:16.774Z,103567.09
2024-01-11T20:51:46.712Z,103567.09
2024-01-11T20:54:13.674Z,103570.69
2024-01-11T20:56:46.081Z,103567.19
2024-01-11T20:59:12.905Z,103566.22
2024-01-11T21:01:40.640Z,103573.22
2024-01-11T21:04:07.399Z,103579.38
2024-01-11T21:06:34.095Z,103580.38
2024-01-11T21:09:04.577Z,103575.97
2024-01-11T21:11:38.474Z,103579.53
2024-01-11T21:14:19.437Z,103584.00
2024-01-11T21:16:46.991Z,103576.91
2024-01-11T21:19:13.543Z,103576.97
2024-01-11T21:21:44.999Z,103567.22
2024-01-11T21:24:11.408Z,103579.66
2024-01-11T21:26:38.076Z,103561.13
2024-01-11T21:29:18.001Z,103556.72
2024-01-11T21:31:44.565Z,103569.09
2024-01-11T21:34:11.084Z,103566.47
2024-01-11T21:36:37.681Z,103566.44
2024-01-11T21:39:04.422Z,103569.94
2024-01-11T21:41:34.756Z,103569.91
2024-01-11T21:44:01.456Z,103569.06
2024-01-11T21:46:28.449Z,103563.72
2024-01-11T21:48:55.261Z,103569.91
2024-01-11T21:51:21.864Z,103573.53
2024-01-11T21:53:48.428Z,103563.75
2024-01-11T21:56:14.938Z,103571.66
2024-01-11T21:58:41.425Z,103571.66
2024-01-11T22:01:10.587Z,103567.28
2024-01-11T22:03:37.160Z,103554.88
2024-01-11T22:06:04.596Z,103561.09
2024-01-11T22:08:31.516Z,103570.03
2024-01-11T22:10:58.040Z,103584.22
2024-01-11T22:13:24.322Z,103573.63
2024-01-11T22:15:50.709Z,103564.72
2024-01-11T22:18:17.440Z,103568.34
2024-01-11T22:20:44.345Z,103569.28
2024-01-11T22:23:10.988Z,103574.63
2024-01-11T22:25:37.429Z,103574.72
2024-01-11T22:28:04.125Z,103578.22
2024-01-11T22:30:30.790Z,103584.38
2024-01-11T22:32:57.671Z,103584.41
2024-01-11T22:35:24.245Z,103592.25
2024-01-11T22:37:51.435Z,103585.25
2024-01-11T22:40:18.608Z,103587.00
2024-01-11T22:42:45.138Z,103583.44
2024-01-11T22:45:11.521Z,103587.91
2024-01-11T22:47:38.139Z,103581.75
2024-01-11T22:50:05.297Z,103580.94
2024-01-11T22:52:31.917Z,103577.34
2024-01-11T22:54:58.295Z,103584.44
2024-01-11T22:57:24.696Z,103593.44
2024-01-11T22:59:51.282Z,103593.53
2024-01-11T23:02:17.847Z,103593.63
2024-01-11T23:04:44.295Z,103593.66
2024-01-11T23:07:10.638Z,103583.97
2024-01-11T23:09:37.734Z,103587.47
2024-01-11T23:12:06.712Z,103584.72
2024-01-11T23:14:33.449Z,103579.47
2024-01-11T23:17:00.069Z,103566.28
2024-01-11T23:19:27.849Z,103574.38
2024-01-11T23:21:54.355Z,103569.97
2024-01-11T23:24:20.683Z,103574.41
2024-01-11T23:26:47.122Z,103577.03
2024-01-11T23:29:13.567Z,103574.34
2024-01-11T23:31:40.119Z,103579.56
2024-01-11T23:34:06.684Z,103573.34
2024-01-11T23:36:33.337Z,103580.41
2024-01-11T23:38:59.745Z,103579.50
2024-01-11T23:41:26.160Z,103581.28
2024-01-11T23:43:52.630Z,103583.94
2024-01-11T23:46:18.965Z,103576.00
2024-01-11T23:48:45.659Z,103573.34
2024-01-11T23:51:12.260Z,103577.78
2024-01-11T23:53:38.786Z,103577.78
2024-01-11T23:56:05.354Z,103577.81
2024-01-11T23:58:32.073Z,103577.81
